Time,TemperatureF,DewpointF,PressureIn,WindDirection,WindDirectionDegrees,WindSpeedMPH,WindSpeedGustMPH,Humidity,HourlyPrecipIn,Conditions,Clouds,dailyrainin,SoftwareType,DateUTC
2013-01-19 00:03:00,39.9,27.0,30.28,West,262,4.0,12.0,61,0.00,,,0.00,weatherlink.com 1.10,2013-01-19 05:03:00,
2013-01-19 00:18:00,39.8,27.0,30.28,SW,214,6.0,10.0,61,0.00,,,0.00,weatherlink.com 1.10,2013-01-19 05:18:00,
2013-01-19 00:33:00,39.8,27.0,30.28,WSW,252,3.0,11.0,61,0.00,,,0.00,weatherlink.com 1.10,2013-01-19 05:33:00,
2013-01-19 01:03:00,39.5,27.0,30.27,WSW,245,0.0,11.0,62,0.00,,,0.00,weatherlink.com 1.10,2013-01-19 06:03:00,
2013-01-19 01:18:00,39.3,27.0,30.27,South,170,2.0,10.0,62,0.00,,,0.00,weatherlink.com 1.10,2013-01-19 06:18:00,
2013-01-19 01:33:00,39.6,27.0,30.26,SW,233,6.0,8.0,61,0.00,,,0.00,weatherlink.com 1.10,2013-01-19 06:33:00,
2013-01-19 01:48:00,39.9,27.0,30.26,WSW,253,1.0,8.0,61,0.00,,,0.00,weatherlink.com 1.10,2013-01-19 06:48:00,
2013-01-19 02:03:00,40.0,27.0,30.25,WSW,242,3.0,8.0,60,0.00,,,0.00,weatherlink.com 1.10,2013-01-19 07:03:00,
2013-01-19 02:18:00,40.4,27.0,30.26,WSW,248,2.0,9.0,59,0.00,,,0.00,weatherlink.com 1.10,2013-01-19 07:18:00,
2013-01-19 02:33:00,40.8,27.0,30.25,SE,143,2.0,10.0,58,0.00,,,0.00,weatherlink.com 1.10,2013-01-19 07:33:00,
2013-01-19 02:48:00,41.1,27.0,30.26,SSE,165,0.0,11.0,57,0.00,,,0.00,weatherlink.com 1.10,2013-01-19 07:48:00,
2013-01-19 03:03:00,41.3,27.0,30.26,SW,227,12.0,14.0,57,0.00,,,0.00,weatherlink.com 1.10,2013-01-19 08:03:00,
2013-01-19 03:18:00,41.4,27.0,30.25,SW,222,2.0,14.0,57,0.00,,,0.00,weatherlink.com 1.10,2013-01-19 08:18:00,
2013-01-19 03:40:00,41.6,27.0,30.25,NW,310,0.0,10.0,56,0.00,,,0.00,weatherlink.com 1.10,2013-01-19 08:40:00,
2013-01-19 03:48:00,41.4,27.0,30.25,West,281,2.0,12.0,57,0.00,,,0.00,weatherlink.com 1.10,2013-01-19 08:48:00,
2013-01-19 04:03:00,41.4,27.0,30.25,SW,236,7.0,9.0,57,0.00,,,0.00,weatherlink.com 1.10,2013-01-19 09:03:00,
2013-01-19 04:18:00,41.2,27.0,30.24,West,270,3.0,8.0,58,0.00,,,0.00,weatherlink.com 1.10,2013-01-19 09:18:00,
2013-01-19 04:33:00,41.1,27.0,30.24,WSW,245,5.0,10.0,58,0.00,,,0.00,weatherlink.com 1.10,2013-01-19 09:33:00,
2013-01-19 04:48:00,41.1,28.0,30.24,South,180,3.0,12.0,59,0.00,,,0.00,weatherlink.com 1.10,2013-01-19 09:48:00,
2013-01-19 05:03:00,40.6,28.0,30.24,SW,232,2.0,6.0,60,0.00,,,0.00,weatherlink.com 1.10,2013-01-19 10:03:00,
2013-01-19 05:18:00,40.5,28.0,30.24,West,274,5.0,12.0,61,0.00,,,0.00,weatherlink.com 1.10,2013-01-19 10:18:00,
2013-01-19 05:33:00,40.3,28.0,30.24,SSW,205,0.0,8.0,62,0.00,,,0.00,weatherlink.com 1.10,2013-01-19 10:33:00,
2013-01-19 05:48:00,40.0,28.0,30.24,SSW,198,1.0,7.0,62,0.00,,,0.00,weatherlink.com 1.10,2013-01-19 10:48:00,
2013-01-19 06:03:00,39.8,28.0,30.24,ESE,120,0.0,8.0,63,0.00,,,0.00,weatherlink.com 1.10,2013-01-19 11:03:00,
2013-01-19 07:48:00,38.3,27.0,30.24,SSE,165,5.0,7.0,64,0.00,,,0.00,weatherlink.com 1.10,2013-01-19 12:48:00,
2013-01-19 08:03:00,38.4,27.0,30.24,WSW,238,9.0,12.0,65,0.00,,,0.00,weatherlink.com 1.10,2013-01-19 13:03:00,
2013-01-19 08:18:00,38.7,27.0,30.24,SW,214,4.0,11.0,64,0.00,,,0.00,weatherlink.com 1.10,2013-01-19 13:18:00,
2013-01-19 08:33:00,39.0,28.0,30.23,West,259,7.0,12.0,64,0.00,,,0.00,weatherlink.com 1.10,2013-01-19 13:33:00,
2013-01-19 08:48:00,39.5,28.0,30.23,South,191,6.0,12.0,64,0.00,,,0.00,weatherlink.com 1.10,2013-01-19 13:48:00,
2013-01-19 09:09:00,40.5,28.0,30.23,WSW,238,1.0,15.0,62,0.00,,,0.00,weatherlink.com 1.10,2013-01-19 14:09:00,
2013-01-19 09:19:00,41.1,28.0,30.23,West,259,2.0,18.0,61,0.00,,,0.00,weatherlink.com 1.10,2013-01-19 14:19:00,
2013-01-19 09:34:00,41.9,29.0,30.23,WSW,250,5.0,13.0,60,0.00,,,0.00,weatherlink.com 1.10,2013-01-19 14:34:00,
2013-01-19 09:49:00,42.9,29.0,30.23,WSW,248,0.0,10.0,59,0.00,,,0.00,weatherlink.com 1.10,2013-01-19 14:49:00,
2013-01-19 10:04:00,43.9,29.0,30.23,WSW,250,0.0,11.0,56,0.00,,,0.00,weatherlink.com 1.10,2013-01-19 15:04:00,
2013-01-19 10:27:00,45.3,29.0,30.22,WSW,239,8.0,12.0,54,0.00,,,0.00,weatherlink.com 1.10,2013-01-19 15:27:00,
2013-01-19 10:34:00,45.7,29.0,30.22,West,269,6.0,11.0,53,0.00,,,0.00,weatherlink.com 1.10,2013-01-19 15:34:00,
2013-01-19 10:49:00,46.3,29.0,30.21,West,273,3.0,13.0,52,0.00,,,0.00,weatherlink.com 1.10,2013-01-19 15:49:00,
2013-01-19 11:04:00,46.8,30.0,30.21,West,281,5.0,18.0,52,0.00,,,0.00,weatherlink.com 1.10,2013-01-19 16:04:00,
2013-01-19 11:19:00,47.5,30.0,30.20,WSW,252,3.0,13.0,51,0.00,,,0.00,weatherlink.com 1.10,2013-01-19 16:19:00,
2013-01-19 11:34:00,48.2,29.0,30.19,WSW,250,7.0,15.0,48,0.00,,,0.00,weatherlink.com 1.10,2013-01-19 16:34:00,
2013-01-19 11:49:00,48.9,30.0,30.17,WNW,288,7.0,15.0,48,0.00,,,0.00,weatherlink.com 1.10,2013-01-19 16:49:00,
2013-01-19 12:04:00,49.9,30.0,30.16,WNW,290,8.0,19.0,47,0.00,,,0.00,weatherlink.com 1.10,2013-01-19 17:04:00,
2013-01-19 12:19:00,50.8,30.0,30.15,SE,139,8.0,14.0,45,0.00,,,0.00,weatherlink.com 1.10,2013-01-19 17:19:00,
2013-01-19 12:34:00,51.4,29.0,30.13,WSW,240,3.0,21.0,43,0.00,,,0.00,weatherlink.com 1.10,2013-01-19 17:34:00,
2013-01-19 12:49:00,51.7,30.0,30.12,WSW,249,4.0,18.0,43,0.00,,,0.00,weatherlink.com 1.10,2013-01-19 17:49:00,
2013-01-19 13:04:00,52.1,29.0,30.11,WNW,290,10.0,18.0,41,0.00,,,0.00,weatherlink.com 1.10,2013-01-19 18:04:00,
2013-01-19 13:19:00,52.7,29.0,30.10,NW,305,5.0,18.0,40,0.00,,,0.00,weatherlink.com 1.10,2013-01-19 18:19:00,
2013-01-19 13:34:00,53.1,29.0,30.09,SW,215,2.0,17.0,40,0.00,,,0.00,weatherlink.com 1.10,2013-01-19 18:34:00,
2013-01-19 13:49:00,53.6,29.0,30.09,WSW,253,6.0,15.0,39,0.00,,,0.00,weatherlink.com 1.10,2013-01-19 18:49:00,
2013-01-19 14:05:00,54.1,29.0,30.08,WSW,249,6.0,14.0,39,0.00,,,0.00,weatherlink.com 1.10,2013-01-19 19:05:00,
2013-01-19 14:20:00,54.7,29.0,30.07,WSW,255,10.0,15.0,38,0.00,,,0.00,weatherlink.com 1.10,2013-01-19 19:20:00,
2013-01-19 14:50:00,56.2,29.0,30.05,South,174,6.0,13.0,35,0.00,,,0.00,weatherlink.com 1.10,2013-01-19 19:50:00,
2013-01-19 15:20:00,56.3,27.0,30.04,WNW,282,1.0,22.0,33,0.00,,,0.00,weatherlink.com 1.10,2013-01-19 20:20:00,
2013-01-19 15:35:00,56.3,28.0,30.02,SW,235,5.0,16.0,34,0.00,,,0.00,weatherlink.com 1.10,2013-01-19 20:35:00,
2013-01-19 15:50:00,56.1,28.0,30.02,WNW,286,2.0,19.0,34,0.00,,,0.00,weatherlink.com 1.10,2013-01-19 20:50:00,
2013-01-19 16:05:00,56.2,29.0,30.02,WSW,256,9.0,16.0,35,0.00,,,0.00,weatherlink.com 1.10,2013-01-19 21:05:00,
2013-01-19 16:20:00,56.5,28.0,30.01,WNW,290,9.0,13.0,34,0.00,,,0.00,weatherlink.com 1.10,2013-01-19 21:20:00,
2013-01-19 17:05:00,55.7,29.0,30.00,SE,138,6.0,14.0,36,0.00,,,0.00,weatherlink.com 1.10,2013-01-19 22:05:00,
2013-01-19 17:20:00,54.9,29.0,30.00,WSW,257,5.0,14.0,37,0.00,,,0.00,weatherlink.com 1.10,2013-01-19 22:20:00,
2013-01-19 17:50:00,53.2,29.0,29.99,WSW,253,9.0,15.0,40,0.00,,,0.00,weatherlink.com 1.10,2013-01-19 22:50:00,
2013-01-19 18:05:00,52.9,29.0,29.98,West,273,4.0,15.0,40,0.00,,,0.00,weatherlink.com 1.10,2013-01-19 23:05:00,
2013-01-19 18:20:00,52.6,29.0,29.98,SSW,207,7.0,16.0,41,0.00,,,0.00,weatherlink.com 1.10,2013-01-19 23:20:00,
2013-01-19 18:35:00,52.4,29.0,29.98,West,274,8.0,15.0,41,0.00,,,0.00,weatherlink.com 1.10,2013-01-19 23:35:00,
2013-01-19 19:20:00,51.5,29.0,29.99,SW,229,5.0,14.0,42,0.00,,,0.00,weatherlink.com 1.10,2013-01-20 00:20:00,
2013-01-19 19:35:00,51.2,29.0,30.00,WSW,252,2.0,11.0,43,0.00,,,0.00,weatherlink.com 1.10,2013-01-20 00:35:00,
2013-01-19 19:50:00,50.8,29.0,30.00,West,278,1.0,9.0,44,0.00,,,0.00,weatherlink.com 1.10,2013-01-20 00:50:00,
2013-01-19 20:05:00,50.4,30.0,30.01,West,276,2.0,8.0,45,0.00,,,0.00,weatherlink.com 1.10,2013-01-20 01:05:00,
2013-01-19 20:35:00,50.1,29.0,30.01,WSW,246,12.0,13.0,44,0.00,,,0.00,weatherlink.com 1.10,2013-01-20 01:35:00,
2013-01-19 21:05:00,49.9,28.0,30.01,WNW,287,8.0,14.0,43,0.00,,,0.00,weatherlink.com 1.10,2013-01-20 02:05:00,
2013-01-19 21:20:00,49.7,28.0,30.01,SSW,195,4.0,15.0,44,0.00,,,0.00,weatherlink.com 1.10,2013-01-20 02:20:00,
2013-01-19 21:35:00,49.6,29.0,30.00,WSW,238,2.0,14.0,45,0.00,,,0.00,weatherlink.com 1.10,2013-01-20 02:35:00,
2013-01-19 21:50:00,49.1,29.0,30.00,WSW,250,0.0,11.0,46,0.00,,,0.00,weatherlink.com 1.10,2013-01-20 02:50:00,
2013-01-19 22:05:00,49.1,29.0,30.01,WSW,253,2.0,15.0,46,0.00,,,0.00,weatherlink.com 1.10,2013-01-20 03:05:00,
2013-01-19 22:20:00,49.1,29.0,30.01,WSW,243,3.0,12.0,47,0.00,,,0.00,weatherlink.com 1.10,2013-01-20 03:20:00,
2013-01-19 22:35:00,48.9,29.0,30.01,SW,233,12.0,12.0,47,0.00,,,0.00,weatherlink.com 1.10,2013-01-20 03:35:00,
2013-01-19 22:51:00,48.6,30.0,30.01,SW,225,1.0,9.0,48,0.00,,,0.00,weatherlink.com 1.10,2013-01-20 03:51:00,
2013-01-19 23:06:00,48.6,30.0,30.01,West,259,1.0,11.0,49,0.00,,,0.00,weatherlink.com 1.10,2013-01-20 04:06:00,
2013-01-19 23:36:00,48.4,30.0,30.02,WSW,250,2.0,12.0,50,0.00,,,0.00,weatherlink.com 1.10,2013-01-20 04:36:00,